createdAt,value
2022-10-30T00:00:52.556Z,12.49
2022-10-30T00:01:52.692Z,12.46
2022-10-30T00:02:52.584Z,12.46
2022-10-30T00:03:52.572Z,12.43
2022-10-30T00:04:52.494Z,12.41
2022-10-30T00:05:52.470Z,12.40
2022-10-30T00:06:52.460Z,12.38
2022-10-30T00:07:52.477Z,12.36
2022-10-30T00:08:52.584Z,12.34
2022-10-30T00:09:52.421Z,12.36
2022-10-30T00:10:52.422Z,12.36
2022-10-30T00:11:52.389Z,12.36
2022-10-30T00:12:52.391Z,12.37
2022-10-30T00:13:52.384Z,12.40
2022-10-30T00:14:52.350Z,12.43
2022-10-30T00:15:52.331Z,12.41
2022-10-30T00:16:52.493Z,12.41
2022-10-30T00:17:52.332Z,12.40
2022-10-30T00:18:52.385Z,12.37
2022-10-30T00:19:52.277Z,12.34
2022-10-30T00:20:52.330Z,12.30
2022-10-30T00:21:52.251Z,12.29
2022-10-30T00:22:52.271Z,12.25
2022-10-30T00:23:52.261Z,12.25
2022-10-30T00:24:52.218Z,12.23
2022-10-30T00:25:52.199Z,12.23
2022-10-30T00:26:52.268Z,12.25
2022-10-30T00:27:52.168Z,12.25
2022-10-30T00:28:52.180Z,12.23
2022-10-30T00:29:52.151Z,12.21
2022-10-30T00:30:52.142Z,12.18
2022-10-30T00:31:52.138Z,12.16
2022-10-30T00:32:52.124Z,12.13
2022-10-30T00:33:52.112Z,12.12
2022-10-30T00:34:52.089Z,12.08
2022-10-30T00:35:52.122Z,12.03
2022-10-30T00:36:52.061Z,12.01
2022-10-30T00:37:52.043Z,12.00
2022-10-30T00:38:52.040Z,11.98
2022-10-30T00:39:52.018Z,12.00
2022-10-30T00:40:52.254Z,12.00
2022-10-30T00:41:51.987Z,12.00
2022-10-30T00:42:51.981Z,11.98
2022-10-30T00:43:51.985Z,12.00
2022-10-30T00:44:51.953Z,11.98
2022-10-30T00:45:51.930Z,11.97
2022-10-30T00:46:51.945Z,11.96
2022-10-30T00:47:51.916Z,11.93
2022-10-30T00:48:51.898Z,11.88
2022-10-30T00:49:51.887Z,11.85
2022-10-30T00:50:51.877Z,11.84
2022-10-30T00:51:51.852Z,11.81
2022-10-30T00:52:51.862Z,11.79
2022-10-30T00:53:51.859Z,11.78
2022-10-30T00:54:51.807Z,11.78
2022-10-30T00:55:51.797Z,11.77
2022-10-30T00:56:51.808Z,11.75
2022-10-30T00:57:51.777Z,11.74
2022-10-30T00:58:51.789Z,11.72
2022-10-30T00:59:51.738Z,11.72
2022-10-30T01:00:51.847Z,11.74
2022-10-30T01:01:51.787Z,11.74
2022-10-30T01:02:51.759Z,11.77
2022-10-30T01:03:51.700Z,11.81
2022-10-30T01:04:51.701Z,11.78
2022-10-30T01:05:51.676Z,11.77
2022-10-30T01:06:51.651Z,11.74
2022-10-30T01:07:51.665Z,11.72
2022-10-30T01:08:56.854Z,11.67
2022-10-30T01:09:52.631Z,11.64
2022-10-30T01:10:51.587Z,11.60
2022-10-30T01:11:51.624Z,11.59
2022-10-30T01:12:51.829Z,11.57
2022-10-30T01:13:51.585Z,11.54
2022-10-30T01:14:51.544Z,11.53
2022-10-30T01:15:51.538Z,11.51
2022-10-30T01:16:51.528Z,11.51
2022-10-30T01:17:51.507Z,11.49
2022-10-30T01:18:51.509Z,11.51
2022-10-30T01:19:51.600Z,11.51
2022-10-30T01:20:51.458Z,11.48
2022-10-30T01:21:51.458Z,11.48
2022-10-30T01:22:51.448Z,11.46
2022-10-30T01:23:51.432Z,11.46
2022-10-30T01:24:51.434Z,11.45
2022-10-30T01:25:51.398Z,11.45
2022-10-30T01:26:51.696Z,11.44
2022-10-30T01:27:51.393Z,11.41
2022-10-30T01:28:51.629Z,11.41
2022-10-30T01:29:51.372Z,11.39
2022-10-30T01:30:51.326Z,11.36
2022-10-30T01:31:51.326Z,11.33
2022-10-30T01:32:51.307Z,11.31
2022-10-30T01:33:51.336Z,11.30
2022-10-30T01:34:51.575Z,11.27
2022-10-30T01:35:51.543Z,11.26
2022-10-30T01:36:51.245Z,11.24
2022-10-30T01:37:51.276Z,11.20
2022-10-30T01:38:51.266Z,11.19
2022-10-30T01:39:51.246Z,11.16
2022-10-30T01:40:51.196Z,11.12
2022-10-30T01:41:51.214Z,11.09
2022-10-30T01:42:51.188Z,11.06
2022-10-30T01:43:51.415Z,11.06
2022-10-30T01:44:51.145Z,11.05
2022-10-30T01:45:51.149Z,11.05
2022-10-30T01:46:51.135Z,11.02
2022-10-30T01:47:51.116Z,11.01
2022-10-30T01:48:51.100Z,10.98
2022-10-30T01:49:51.124Z,10.95
2022-10-30T01:50:51.055Z,10.93
2022-10-30T01:51:51.076Z,10.91
2022-10-30T01:52:51.055Z,10.91
2022-10-30T01:53:51.033Z,10.93
2022-10-30T01:54:51.085Z,10.90
2022-10-30T01:55:51.004Z,10.90
2022-10-30T01:56:51.019Z,10.90
2022-10-30T01:57:51.005Z,10.93
2022-10-30T01:58:50.983Z,10.95
2022-10-30T01:59:51.001Z,10.98
2022-10-30T02:00:50.935Z,10.99
2022-10-30T02:01:51.021Z,11.02
2022-10-30T02:02:50.914Z,11.03
2022-10-30T02:03:50.956Z,11.03
2022-10-30T02:04:50.894Z,11.03
2022-10-30T02:05:50.865Z,11.05
2022-10-30T02:06:50.844Z,11.03
2022-10-30T02:07:50.854Z,11.05
2022-10-30T02:08:50.833Z,11.06
2022-10-30T02:09:50.814Z,11.08
2022-10-30T02:10:50.814Z,11.08
2022-10-30T02:11:50.793Z,11.08
2022-10-30T02:12:50.791Z,11.06
2022-10-30T02:13:50.785Z,11.06
2022-10-30T02:14:50.763Z,11.05
2022-10-30T02:15:50.735Z,11.05
2022-10-30T02:16:50.724Z,11.03
2022-10-30T02:17:50.985Z,11.03
2022-10-30T02:18:50.714Z,11.02
2022-10-30T02:19:50.697Z,11.01
2022-10-30T02:20:50.672Z,11.01
2022-10-30T02:21:50.660Z,10.98
2022-10-30T02:22:53.139Z,10.95
2022-10-30T02:23:51.636Z,10.94
2022-10-30T02:24:50.617Z,10.93
2022-10-30T02:25:50.861Z,10.93
2022-10-30T02:26:50.584Z,10.93
2022-10-30T02:27:50.605Z,10.93
2022-10-30T02:28:50.580Z,10.94
2022-10-30T02:29:50.565Z,10.94
2022-10-30T02:30:50.556Z,10.93
2022-10-30T02:31:50.542Z,10.93
2022-10-30T02:32:50.526Z,10.94
2022-10-30T02:33:50.497Z,10.95
2022-10-30T02:34:50.482Z,10.94
2022-10-30T02:35:50.473Z,10.95
2022-10-30T02:36:50.486Z,10.95
2022-10-30T02:37:50.444Z,10.99
2022-10-30T02:38:50.443Z,11.01
2022-10-30T02:39:50.455Z,11.03
2022-10-30T02:40:50.414Z,11.08
2022-10-30T02:41:50.669Z,11.09
2022-10-30T02:42:50.384Z,11.13
2022-10-30T02:43:50.405Z,11.19
2022-10-30T02:44:50.344Z,11.20
2022-10-30T02:45:50.337Z,11.23
2022-10-30T02:46:50.350Z,11.24
2022-10-30T02:47:50.341Z,11.28
2022-10-30T02:48:50.585Z,11.33
2022-10-30T02:49:50.283Z,11.38
2022-10-30T02:50:50.296Z,11.44
2022-10-30T02:51:50.278Z,11.46
2022-10-30T02:52:50.262Z,11.46
2022-10-30T02:53:50.277Z,11.46
2022-10-30T02:54:50.213Z,11.44
2022-10-30T02:55:50.212Z,11.41
2022-10-30T02:56:50.236Z,11.41
2022-10-30T02:57:50.414Z,11.35
2022-10-30T02:58:50.160Z,11.33
2022-10-30T02:59:50.150Z,11.28
2022-10-30T03:00:50.241Z,11.28
2022-10-30T03:01:50.228Z,11.26
2022-10-30T03:02:50.171Z,11.26
2022-10-30T03:03:50.094Z,11.24
2022-10-30T03:04:50.082Z,11.24
2022-10-30T03:05:50.092Z,11.24
2022-10-30T03:06:50.108Z,11.23
2022-10-30T03:07:50.054Z,11.21
2022-10-30T03:08:50.036Z,11.23
2022-10-30T03:09:50.029Z,11.23
2022-10-30T03:10:50.260Z,11.21
2022-10-30T03:11:50.030Z,11.21
2022-10-30T03:12:50.232Z,11.20
2022-10-30T03:13:49.991Z,11.20
2022-10-30T03:14:49.954Z,11.19
2022-10-30T03:15:49.948Z,11.17
2022-10-30T03:16:50.218Z,11.17
2022-10-30T03:17:49.920Z,11.17
2022-10-30T03:18:49.893Z,11.16
2022-10-30T03:19:49.889Z,11.13
2022-10-30T03:20:49.881Z,11.12
2022-10-30T03:21:49.912Z,11.11
2022-10-30T03:22:49.837Z,11.11
2022-10-30T03:23:49.845Z,11.08
2022-10-30T03:24:49.817Z,11.05
2022-10-30T03:25:49.810Z,11.03
2022-10-30T03:26:50.135Z,11.02
2022-10-30T03:27:49.796Z,11.01
2022-10-30T03:28:49.761Z,11.01
2022-10-30T03:29:49.760Z,10.98
2022-10-30T03:30:49.746Z,10.95
2022-10-30T03:31:49.766Z,10.95
2022-10-30T03:32:49.712Z,10.95
2022-10-30T03:33:49.718Z,10.98
2022-10-30T03:34:49.678Z,11.03
2022-10-30T03:35:49.678Z,11.05
2022-10-30T03:36:49.670Z,11.06
2022-10-30T03:37:49.721Z,11.06
2022-10-30T03:38:49.628Z,11.03
2022-10-30T03:39:49.650Z,11.02
2022-10-30T03:40:49.608Z,11.01
2022-10-30T03:41:49.607Z,10.99
2022-10-30T03:42:49.569Z,10.94
2022-10-30T03:43:49.566Z,10.91
2022-10-30T03:44:49.568Z,10.88
2022-10-30T03:45:49.563Z,10.87
2022-10-30T03:46:49.530Z,10.84
2022-10-30T03:47:49.520Z,10.83
2022-10-30T03:48:49.500Z,10.80
2022-10-30T03:49:49.527Z,10.80
2022-10-30T03:50:49.465Z,10.75
2022-10-30T03:51:49.474Z,10.73
2022-10-30T03:52:49.451Z,10.70
2022-10-30T03:53:49.459Z,10.68
2022-10-30T03:54:49.421Z,10.66
2022-10-30T03:55:49.680Z,10.66
2022-10-30T03:56:49.406Z,10.63
2022-10-30T03:57:49.389Z,10.60
2022-10-30T03:58:49.373Z,10.60
2022-10-30T03:59:49.397Z,10.55
2022-10-30T04:00:49.332Z,10.54
2022-10-30T04:01:49.639Z,10.54
2022-10-30T04:02:49.578Z,10.51
2022-10-30T04:03:49.345Z,10.51
2022-10-30T04:04:49.296Z,10.49
2022-10-30T04:05:49.276Z,10.47
2022-10-30T04:06:49.554Z,10.46
2022-10-30T04:07:49.260Z,10.46
2022-10-30T04:08:49.237Z,10.47
2022-10-30T04:09:49.229Z,10.49
2022-10-30T04:10:49.247Z,10.51
2022-10-30T04:11:49.217Z,10.51
2022-10-30T04:12:49.167Z,10.49
2022-10-30T04:13:49.179Z,10.51
2022-10-30T04:14:49.154Z,10.49
2022-10-30T04:15:54.185Z,10.49
2022-10-30T04:16:50.148Z,10.47
2022-10-30T04:17:49.407Z,10.46
2022-10-30T04:18:49.106Z,10.44
2022-10-30T04:19:49.525Z,10.43
2022-10-30T04:20:49.065Z,10.39
2022-10-30T04:21:49.342Z,10.38
2022-10-30T04:22:49.066Z,10.35
2022-10-30T04:23:49.060Z,10.34
2022-10-30T04:24:49.016Z,10.31
2022-10-30T04:25:49.003Z,10.29
2022-10-30T04:26:49.009Z,10.26
2022-10-30T04:27:48.976Z,10.25
2022-10-30T04:28:48.963Z,10.24
2022-10-30T04:29:48.952Z,10.24
2022-10-30T04:30:48.942Z,10.22
2022-10-30T04:31:49.004Z,10.20
2022-10-30T04:32:48.925Z,10.20
2022-10-30T04:33:49.226Z,10.20
2022-10-30T04:34:48.885Z,10.22
2022-10-30T04:35:48.872Z,10.20
2022-10-30T04:36:48.898Z,10.22
2022-10-30T04:37:49.129Z,10.24
2022-10-30T04:38:48.824Z,10.24
2022-10-30T04:39:48.830Z,10.24
2022-10-30T04:40:48.806Z,10.24
2022-10-30T04:41:48.793Z,10.25
2022-10-30T04:42:48.784Z,10.25
2022-10-30T04:43:48.756Z,10.26
2022-10-30T04:44:48.764Z,10.26
2022-10-30T04:45:48.746Z,10.29
2022-10-30T04:46:48.751Z,10.29
2022-10-30T04:47:48.718Z,10.31
2022-10-30T04:48:48.700Z,10.32
2022-10-30T04:49:48.695Z,10.34
2022-10-30T04:50:48.685Z,10.34
2022-10-30T04:51:48.939Z,10.34
2022-10-30T04:52:48.924Z,10.35
2022-10-30T04:53:48.640Z,10.38
2022-10-30T04:54:48.639Z,10.38
2022-10-30T04:55:48.601Z,10.35
2022-10-30T04:56:48.613Z,10.35
2022-10-30T04:57:48.572Z,10.35
2022-10-30T04:58:48.572Z,10.35
2022-10-30T04:59:48.567Z,10.36
2022-10-30T05:00:48.561Z,10.35
2022-10-30T05:01:48.612Z,10.36
2022-10-30T05:02:48.524Z,10.38
2022-10-30T05:03:50.653Z,10.38
2022-10-30T05:04:49.482Z,10.39
2022-10-30T05:05:48.761Z,10.36
2022-10-30T05:06:48.475Z,10.35
2022-10-30T05:07:48.460Z,10.35
2022-10-30T05:08:48.431Z,10.35
2022-10-30T05:09:48.461Z,10.34
2022-10-30T05:10:48.423Z,10.34
2022-10-30T05:11:48.394Z,10.32
2022-10-30T05:12:48.369Z,10.32
2022-10-30T05:13:48.373Z,10.32
2022-10-30T05:14:48.377Z,10.32
2022-10-30T05:15:48.616Z,10.32
2022-10-30T05:16:48.324Z,10.31
2022-10-30T05:17:48.337Z,10.32
2022-10-30T05:18:48.309Z,10.32
2022-10-30T05:19:48.290Z,10.31
2022-10-30T05:20:48.279Z,10.32
2022-10-30T05:21:48.519Z,10.34
2022-10-30T05:22:48.249Z,10.36
2022-10-30T05:23:48.220Z,10.36
2022-10-30T05:24:48.209Z,10.38
2022-10-30T05:25:48.238Z,10.39
2022-10-30T05:26:48.207Z,10.39
2022-10-30T05:27:48.176Z,10.43
2022-10-30T05:28:48.174Z,10.43
2022-10-30T05:29:48.140Z,10.46
2022-10-30T05:30:48.181Z,10.46
2022-10-30T05:31:48.117Z,10.47
2022-10-30T05:32:48.126Z,10.47
2022-10-30T05:33:48.127Z,10.47
2022-10-30T05:34:48.096Z,10.46
2022-10-30T05:35:48.095Z,10.44
2022-10-30T05:36:48.058Z,10.46
2022-10-30T05:37:48.057Z,10.44
2022-10-30T05:38:48.055Z,10.44
2022-10-30T05:39:48.276Z,10.46
2022-10-30T05:40:48.040Z,10.46
2022-10-30T05:41:47.989Z,10.46
2022-10-30T05:42:47.978Z,10.46
2022-10-30T05:43:47.958Z,10.46
2022-10-30T05:45:00.352Z,10.44
2022-10-30T05:45:49.035Z,10.47
2022-10-30T05:46:47.996Z,10.46
2022-10-30T05:47:47.904Z,10.47
2022-10-30T05:48:47.907Z,10.49
2022-10-30T05:49:47.888Z,10.51
2022-10-30T05:50:47.909Z,10.52
2022-10-30T05:51:47.860Z,10.52
2022-10-30T05:52:47.858Z,10.54
2022-10-30T05:53:47.826Z,10.54
2022-10-30T05:54:47.836Z,10.54
2022-10-30T05:55:47.810Z,10.55
2022-10-30T05:56:47.789Z,10.55
2022-10-30T05:57:47.786Z,10.57
2022-10-30T05:58:47.765Z,10.58
2022-10-30T05:59:47.757Z,10.62
2022-10-30T06:00:47.745Z,10.62
2022-10-30T06:01:47.721Z,10.63
2022-10-30T06:02:47.741Z,10.66
2022-10-30T06:03:47.704Z,10.69
2022-10-30T06:04:47.956Z,10.72
2022-10-30T06:05:47.676Z,10.72
2022-10-30T06:06:47.665Z,10.72
2022-10-30T06:07:47.637Z,10.70
2022-10-30T06:08:47.644Z,10.72
2022-10-30T06:09:47.627Z,10.72
2022-10-30T06:10:47.610Z,10.72
2022-10-30T06:11:47.585Z,10.73
2022-10-30T06:12:47.660Z,10.73
2022-10-30T06:13:47.565Z,10.75
2022-10-30T06:14:47.571Z,10.76
2022-10-30T06:15:47.809Z,10.76
2022-10-30T06:16:47.530Z,10.76
2022-10-30T06:17:47.531Z,10.75
2022-10-30T06:18:47.494Z,10.76
2022-10-30T06:19:47.489Z,10.75
2022-10-30T06:20:47.514Z,10.76
2022-10-30T06:21:47.458Z,10.75
2022-10-30T06:22:47.446Z,10.73
2022-10-30T06:23:47.439Z,10.73
2022-10-30T06:24:47.433Z,10.72
2022-10-30T06:25:47.394Z,10.73
2022-10-30T06:26:47.402Z,10.75
2022-10-30T06:27:47.415Z,10.78
2022-10-30T06:28:47.365Z,10.76
2022-10-30T06:29:47.388Z,10.78
2022-10-30T06:30:47.333Z,10.80
2022-10-30T06:31:47.326Z,10.78
2022-10-30T06:32:47.330Z,10.80
2022-10-30T06:33:47.304Z,10.80
2022-10-30T06:34:47.566Z,10.80
2022-10-30T06:35:47.296Z,10.81
2022-10-30T06:36:47.349Z,10.81
2022-10-30T06:37:47.263Z,10.83
2022-10-30T06:38:47.230Z,10.84
2022-10-30T06:39:47.244Z,10.88
2022-10-30T06:40:47.197Z,10.90
2022-10-30T06:41:47.205Z,10.93
2022-10-30T06:42:47.188Z,10.98
2022-10-30T06:43:47.164Z,11.02
2022-10-30T06:44:47.165Z,11.06
2022-10-30T06:45:47.133Z,11.09
2022-10-30T06:46:47.126Z,11.13
2022-10-30T06:47:47.130Z,11.19
2022-10-30T06:48:47.116Z,11.23
2022-10-30T06:49:47.113Z,11.27
2022-10-30T06:50:47.062Z,11.31
2022-10-30T06:51:47.067Z,11.38
2022-10-30T06:52:47.343Z,11.42
2022-10-30T06:53:47.316Z,11.48
2022-10-30T06:54:47.049Z,11.54
2022-10-30T06:55:47.268Z,11.59
2022-10-30T06:56:46.994Z,11.63
2022-10-30T06:57:46.981Z,11.66
2022-10-30T06:58:46.982Z,11.72
2022-10-30T06:59:46.969Z,11.77
2022-10-30T07:00:47.037Z,11.79
2022-10-30T07:01:47.017Z,11.84
2022-10-30T07:02:47.194Z,11.87
2022-10-30T07:03:46.911Z,11.87
2022-10-30T07:04:46.893Z,11.93
2022-10-30T07:05:46.871Z,11.94
2022-10-30T07:06:46.916Z,11.97
2022-10-30T07:07:46.854Z,12.00
2022-10-30T07:08:46.844Z,12.01
2022-10-30T07:09:47.125Z,12.05
2022-10-30T07:10:46.800Z,12.08
2022-10-30T07:11:46.782Z,12.11
2022-10-30T07:12:46.841Z,12.13
2022-10-30T07:13:46.789Z,12.18
2022-10-30T07:14:46.751Z,12.18
2022-10-30T07:15:46.735Z,12.22
2022-10-30T07:16:46.736Z,12.26
2022-10-30T07:17:46.703Z,12.30
2022-10-30T07:18:46.715Z,12.31
2022-10-30T07:19:46.721Z,12.36
2022-10-30T07:20:46.674Z,12.40
2022-10-30T07:21:46.662Z,12.46
2022-10-30T07:22:46.646Z,12.51
2022-10-30T07:23:46.645Z,12.56
2022-10-30T07:24:46.635Z,12.61
2022-10-30T07:25:46.616Z,12.69
2022-10-30T07:26:46.862Z,12.73
2022-10-30T07:27:46.571Z,12.77
2022-10-30T07:28:46.573Z,12.85
2022-10-30T07:29:46.553Z,12.91
2022-10-30T07:30:46.555Z,12.96
2022-10-30T07:31:57.791Z,13.01
2022-10-30T07:32:47.554Z,13.09
2022-10-30T07:33:46.492Z,13.13
2022-10-30T07:34:46.491Z,13.17
2022-10-30T07:35:46.503Z,13.22
2022-10-30T07:36:46.461Z,13.27
2022-10-30T07:37:46.439Z,13.31
2022-10-30T07:38:46.448Z,13.36
2022-10-30T07:39:46.406Z,13.41
2022-10-30T07:40:46.460Z,13.46
2022-10-30T07:41:49.984Z,13.50
2022-10-30T07:42:46.402Z,13.55
2022-10-30T07:43:46.389Z,13.66
2022-10-30T07:44:46.359Z,13.83
2022-10-30T07:45:46.363Z,14.09
2022-10-30T07:46:46.333Z,14.36
2022-10-30T07:47:46.345Z,14.66
2022-10-30T07:48:46.304Z,14.91
2022-10-30T07:49:46.281Z,15.01
2022-10-30T07:50:46.297Z,15.12
2022-10-30T07:51:46.259Z,15.33
2022-10-30T07:52:46.262Z,15.52
2022-10-30T07:53:46.250Z,15.71
2022-10-30T07:54:46.214Z,15.99
2022-10-30T07:55:46.204Z,16.37
2022-10-30T07:56:46.192Z,16.75
2022-10-30T07:57:46.232Z,17.07
2022-10-30T07:58:46.170Z,17.21
2022-10-30T07:59:46.153Z,17.22
2022-10-30T08:00:46.143Z,17.22
2022-10-30T08:01:46.282Z,17.28
2022-10-30T08:02:46.259Z,17.63
2022-10-30T08:03:46.090Z,18.10
2022-10-30T08:04:46.090Z,18.39
2022-10-30T08:05:46.070Z,18.56
2022-10-30T08:06:46.113Z,18.79
2022-10-30T08:07:46.050Z,18.99
2022-10-30T08:08:46.040Z,19.49
2022-10-30T08:09:46.025Z,19.85
2022-10-30T08:10:46.008Z,20.27
2022-10-30T08:11:46.019Z,20.66
2022-10-30T08:12:45.990Z,21.09
2022-10-30T08:13:46.214Z,21.55
2022-10-30T08:14:45.960Z,21.94
2022-10-30T08:15:45.948Z,22.33
2022-10-30T08:16:46.583Z,22.66
2022-10-30T08:17:45.922Z,22.88
2022-10-30T08:18:45.913Z,23.14
2022-10-30T08:19:45.883Z,23.38
2022-10-30T08:20:45.918Z,23.62
2022-10-30T08:21:45.865Z,23.77
2022-10-30T08:22:45.848Z,23.78
2022-10-30T08:23:45.828Z,23.81
2022-10-30T08:24:45.832Z,23.78
2022-10-30T08:25:45.801Z,24.04
2022-10-30T08:26:45.826Z,24.02
2022-10-30T08:27:45.772Z,24.08
2022-10-30T08:28:45.763Z,23.89
2022-10-30T08:29:45.776Z,23.59
2022-10-30T08:30:45.746Z,23.32
2022-10-30T08:31:45.752Z,23.07
2022-10-30T08:32:45.714Z,22.85
2022-10-30T08:33:45.695Z,22.66
2022-10-30T08:34:45.676Z,22.51
2022-10-30T08:35:45.673Z,22.41
2022-10-30T08:36:48.508Z,22.59
2022-10-30T08:37:45.638Z,22.93
2022-10-30T08:38:45.624Z,23.07
2022-10-30T08:39:45.605Z,23.22
2022-10-30T08:40:45.612Z,23.53
2022-10-30T08:41:45.601Z,23.78
2022-10-30T08:42:45.649Z,24.19
2022-10-30T08:43:45.557Z,24.63
2022-10-30T08:44:45.543Z,25.01
2022-10-30T08:45:45.543Z,25.20
2022-10-30T08:46:45.535Z,25.23
2022-10-30T08:47:45.504Z,25.19
2022-10-30T08:48:45.505Z,25.12
2022-10-30T08:49:45.744Z,25.09
2022-10-30T08:50:45.466Z,24.99
2022-10-30T08:51:45.498Z,24.93
2022-10-30T08:52:48.232Z,24.99
2022-10-30T08:53:46.477Z,25.11
2022-10-30T08:54:45.424Z,25.11
2022-10-30T08:55:45.705Z,25.07
2022-10-30T08:56:45.403Z,25.08
2022-10-30T08:57:45.378Z,25.11
2022-10-30T08:58:45.367Z,25.24
2022-10-30T08:59:45.339Z,25.42
2022-10-30T09:00:45.366Z,25.59
2022-10-30T09:01:45.392Z,25.57
2022-10-30T09:02:45.436Z,25.35
2022-10-30T09:03:45.299Z,25.08
2022-10-30T09:04:45.312Z,24.75
2022-10-30T09:05:45.293Z,24.42
2022-10-30T09:06:45.258Z,24.18
2022-10-30T09:07:45.239Z,24.14
2022-10-30T09:08:45.253Z,24.16
2022-10-30T09:09:45.216Z,24.16
2022-10-30T09:10:45.204Z,24.30
2022-10-30T09:11:45.229Z,24.61
2022-10-30T09:12:45.199Z,24.93
2022-10-30T09:13:45.179Z,25.19
2022-10-30T09:14:45.142Z,25.39
2022-10-30T09:15:45.141Z,25.59
2022-10-30T09:16:45.138Z,25.82
2022-10-30T09:17:45.120Z,26.01
2022-10-30T09:18:45.142Z,26.21
2022-10-30T09:19:45.154Z,26.38
2022-10-30T09:20:45.095Z,26.56
2022-10-30T09:21:45.063Z,26.69
2022-10-30T09:22:45.033Z,26.81
2022-10-30T09:23:45.034Z,26.90
2022-10-30T09:24:45.030Z,26.96
2022-10-30T09:25:45.010Z,27.01
2022-10-30T09:26:44.990Z,27.01
2022-10-30T09:27:45.001Z,27.01
2022-10-30T09:28:44.962Z,27.03
2022-10-30T09:29:44.954Z,27.03
2022-10-30T09:30:44.942Z,27.11
2022-10-30T09:31:44.922Z,27.21
2022-10-30T09:32:44.902Z,27.34
2022-10-30T09:33:44.901Z,27.40
2022-10-30T09:34:45.051Z,27.43
2022-10-30T09:35:44.881Z,27.45
2022-10-30T09:36:44.852Z,27.46
2022-10-30T09:37:44.849Z,27.49
2022-10-30T09:38:44.832Z,27.55
2022-10-30T09:39:44.836Z,27.65
2022-10-30T09:40:44.826Z,27.66
2022-10-30T09:41:48.622Z,27.55
2022-10-30T09:42:45.805Z,27.35
2022-10-30T09:43:44.784Z,27.21
2022-10-30T09:44:48.752Z,27.23
2022-10-30T09:45:45.778Z,27.31
2022-10-30T09:46:44.731Z,27.42
2022-10-30T09:47:44.723Z,27.55
2022-10-30T09:48:44.700Z,27.65
2022-10-30T09:49:44.706Z,27.74
2022-10-30T09:50:44.686Z,27.83
2022-10-30T09:51:44.671Z,27.93
2022-10-30T09:52:44.652Z,28.02
2022-10-30T09:53:44.643Z,28.08
2022-10-30T09:54:44.623Z,28.13
2022-10-30T09:56:00.152Z,28.15
2022-10-30T09:56:44.598Z,28.20
2022-10-30T09:57:44.575Z,28.24
2022-10-30T09:58:44.573Z,28.24
2022-10-30T09:59:44.550Z,28.23
2022-10-30T10:00:44.570Z,28.25
2022-10-30T10:01:44.615Z,28.27
2022-10-30T10:02:44.646Z,28.28
2022-10-30T10:03:44.551Z,28.30
2022-10-30T10:04:44.486Z,28.27
2022-10-30T10:05:44.506Z,28.21
2022-10-30T10:06:44.499Z,28.18
2022-10-30T10:07:44.482Z,28.15
2022-10-30T10:08:44.449Z,28.13
2022-10-30T10:09:44.574Z,28.11
2022-10-30T10:10:44.472Z,28.13
2022-10-30T10:11:44.437Z,28.14
2022-10-30T10:12:44.404Z,28.11
2022-10-30T10:13:44.402Z,28.08
2022-10-30T10:14:44.358Z,28.06
2022-10-30T10:15:44.429Z,28.03
2022-10-30T10:16:44.336Z,27.98
2022-10-30T10:17:44.336Z,27.95
2022-10-30T10:18:44.307Z,27.95
2022-10-30T10:19:44.286Z,27.95
2022-10-30T10:20:44.332Z,27.90
2022-10-30T10:21:44.264Z,27.83
2022-10-30T10:22:44.255Z,27.78
2022-10-30T10:23:44.234Z,27.78
2022-10-30T10:24:44.238Z,27.76
2022-10-30T10:25:44.287Z,27.76
2022-10-30T10:26:44.224Z,27.80
2022-10-30T10:27:44.272Z,27.78
2022-10-30T10:28:44.206Z,27.77
2022-10-30T10:29:44.181Z,27.76
2022-10-30T10:30:44.166Z,27.74
2022-10-30T10:31:44.157Z,27.72
2022-10-30T10:32:44.165Z,27.71
2022-10-30T10:33:44.133Z,27.69
2022-10-30T10:34:44.110Z,27.69
2022-10-30T10:35:44.098Z,27.69
2022-10-30T10:36:44.105Z,27.68
2022-10-30T10:37:44.068Z,27.69
2022-10-30T10:38:44.097Z,27.68
2022-10-30T10:39:44.043Z,27.65
2022-10-30T10:40:44.029Z,27.65
2022-10-30T10:41:44.008Z,27.65
2022-10-30T10:42:44.011Z,27.66
2022-10-30T10:43:43.995Z,27.66
2022-10-30T10:44:44.019Z,27.63
2022-10-30T10:45:43.962Z,27.59
2022-10-30T10:46:43.951Z,27.55
2022-10-30T10:47:43.933Z,27.50
2022-10-30T10:48:43.918Z,27.45
2022-10-30T10:49:43.900Z,27.43
2022-10-30T10:50:43.896Z,27.42
2022-10-30T10:51:43.874Z,27.38
2022-10-30T10:52:43.880Z,27.34
2022-10-30T10:53:43.863Z,27.31
2022-10-30T10:54:43.872Z,27.27
2022-10-30T10:55:43.826Z,27.24
2022-10-30T10:56:43.820Z,27.23
2022-10-30T10:57:43.792Z,27.21
2022-10-30T10:58:43.805Z,27.18
2022-10-30T10:59:43.789Z,27.15
2022-10-30T11:00:43.783Z,27.11
2022-10-30T11:01:43.794Z,27.12
2022-10-30T11:02:43.841Z,27.16
2022-10-30T11:03:43.719Z,27.18
2022-10-30T11:04:43.731Z,27.13
2022-10-30T11:05:43.693Z,27.12
2022-10-30T11:06:43.682Z,27.12
2022-10-30T11:07:43.671Z,27.11
2022-10-30T11:08:43.691Z,27.11
2022-10-30T11:09:43.654Z,27.11
2022-10-30T11:10:43.652Z,27.09
2022-10-30T11:11:43.620Z,27.09
2022-10-30T11:12:43.618Z,27.06
2022-10-30T11:13:43.612Z,27.06
2022-10-30T11:14:43.596Z,27.06
2022-10-30T11:15:43.574Z,27.08
2022-10-30T11:16:43.554Z,27.11
2022-10-30T11:17:43.537Z,27.12
2022-10-30T11:18:43.526Z,27.12
2022-10-30T11:19:46.512Z,27.12
2022-10-30T11:20:44.537Z,27.12
2022-10-30T11:21:43.493Z,27.13
2022-10-30T11:22:43.497Z,27.15
2022-10-30T11:23:43.459Z,27.16
2022-10-30T11:24:43.467Z,27.18
2022-10-30T11:25:43.451Z,27.16
2022-10-30T11:26:43.420Z,27.08
2022-10-30T11:27:43.410Z,27.01
2022-10-30T11:28:43.389Z,26.98
2022-10-30T11:29:43.430Z,27.01
2022-10-30T11:30:43.392Z,27.02
2022-10-30T11:31:43.351Z,27.03
2022-10-30T11:32:43.351Z,27.03
2022-10-30T11:33:43.325Z,27.05
2022-10-30T11:34:43.339Z,27.06
2022-10-30T11:35:43.315Z,27.09
2022-10-30T11:36:43.313Z,27.13
2022-10-30T11:37:43.273Z,27.15
2022-10-30T11:38:43.259Z,27.23
2022-10-30T11:39:43.249Z,27.24
2022-10-30T11:40:43.242Z,27.20
2022-10-30T11:41:43.219Z,27.16
2022-10-30T11:42:43.230Z,27.18
2022-10-30T11:43:43.200Z,27.20
2022-10-30T11:44:43.181Z,27.20
2022-10-30T11:45:43.165Z,27.20
2022-10-30T11:46:43.154Z,27.21
2022-10-30T11:47:43.142Z,27.27
2022-10-30T11:48:43.141Z,27.27
2022-10-30T11:49:43.122Z,27.27
2022-10-30T11:50:43.151Z,27.25
2022-10-30T11:51:43.131Z,27.21
2022-10-30T11:52:43.072Z,27.18
2022-10-30T11:53:43.163Z,27.18
2022-10-30T11:54:43.083Z,27.13
2022-10-30T11:55:43.040Z,27.11
2022-10-30T11:56:43.023Z,27.08
2022-10-30T11:57:43.021Z,27.08
2022-10-30T11:58:43.041Z,27.08
2022-10-30T11:59:42.983Z,27.09
2022-10-30T12:00:43.005Z,27.11
2022-10-30T12:01:43.016Z,27.09
2022-10-30T12:02:42.954Z,27.08
2022-10-30T12:03:42.966Z,27.09
2022-10-30T12:04:42.955Z,27.09
2022-10-30T12:05:45.050Z,27.11
2022-10-30T12:06:42.909Z,27.09
2022-10-30T12:07:42.913Z,27.06
2022-10-30T12:08:42.896Z,27.05
2022-10-30T12:09:42.867Z,27.01
2022-10-30T12:10:42.856Z,26.98
2022-10-30T12:11:42.835Z,26.97
2022-10-30T12:12:42.829Z,27.01
2022-10-30T12:13:42.859Z,26.98
2022-10-30T12:14:42.821Z,26.97
2022-10-30T12:15:42.777Z,26.97
2022-10-30T12:16:42.779Z,26.97
2022-10-30T12:17:42.756Z,26.97
2022-10-30T12:18:42.756Z,26.94
2022-10-30T12:19:42.821Z,26.93
2022-10-30T12:20:42.775Z,26.90
2022-10-30T12:21:42.720Z,26.90
2022-10-30T12:22:42.728Z,26.88
2022-10-30T12:23:42.686Z,26.87
2022-10-30T12:24:42.688Z,26.86
2022-10-30T12:25:42.667Z,26.84
2022-10-30T12:26:42.628Z,26.81
2022-10-30T12:27:42.632Z,26.79
2022-10-30T12:28:42.639Z,26.75
2022-10-30T12:30:06.613Z,26.75
2022-10-30T12:30:43.619Z,26.72
2022-10-30T12:31:42.580Z,26.71
2022-10-30T12:32:42.573Z,26.69
2022-10-30T12:33:42.558Z,26.68
2022-10-30T12:34:42.539Z,26.65
2022-10-30T12:35:42.517Z,26.65
2022-10-30T12:36:42.520Z,26.59
2022-10-30T12:37:42.514Z,26.57
2022-10-30T12:38:42.493Z,26.54
2022-10-30T12:39:42.475Z,26.54
2022-10-30T12:40:42.457Z,26.54
2022-10-30T12:41:42.469Z,26.54
2022-10-30T12:42:42.440Z,26.54
2022-10-30T12:43:42.418Z,26.56
2022-10-30T12:44:42.399Z,26.57
2022-10-30T12:45:42.410Z,26.57
2022-10-30T12:46:42.372Z,26.54
2022-10-30T12:47:42.362Z,26.49
2022-10-30T12:48:42.366Z,26.44
2022-10-30T12:49:42.348Z,26.41
2022-10-30T12:50:42.336Z,26.39
2022-10-30T12:51:42.304Z,26.38
2022-10-30T12:52:42.336Z,26.36